sensor_id;sensor_type;location;lat;lon;timestamp;P1;durP1;ratioP1;P2;durP2;ratioP2
10098;SDS011;5089;42.656;23.374;2022-09-20T00:01:01;0.30;;;0.30;;
10098;SDS011;5089;42.656;23.374;2022-09-20T00:03:44;0.30;;;0.30;;
10098;SDS011;5089;42.656;23.374;2022-09-20T00:06:13;0.30;;;0.30;;
10098;SDS011;5089;42.656;23.374;2022-09-20T00:08:43;0.20;;;0.20;;
10098;SDS011;5089;42.656;23.374;2022-09-20T00:11:11;0.30;;;0.30;;
10098;SDS011;5089;42.656;23.374;2022-09-20T00:13:42;0.20;;;0.20;;
10098;SDS011;5089;42.656;23.374;2022-09-20T00:16:11;0.37;;;0.37;;
10098;SDS011;5089;42.656;23.374;2022-09-20T00:18:42;0.20;;;0.20;;
10098;SDS011;5089;42.656;23.374;2022-09-20T00:21:13;0.20;;;0.20;;
10098;SDS011;5089;42.656;23.374;2022-09-20T00:23:42;0.10;;;0.10;;
10098;SDS011;5089;42.656;23.374;2022-09-20T00:26:14;0.30;;;0.30;;
10098;SDS011;5089;42.656;23.374;2022-09-20T00:28:45;0.30;;;0.30;;
10098;SDS011;5089;42.656;23.374;2022-09-20T00:31:12;0.30;;;0.30;;
10098;SDS011;5089;42.656;23.374;2022-09-20T00:33:40;0.30;;;0.30;;
10098;SDS011;5089;42.656;23.374;2022-09-20T00:36:25;0.20;;;0.20;;
10098;SDS011;5089;42.656;23.374;2022-09-20T00:38:53;0.20;;;0.20;;
10098;SDS011;5089;42.656;23.374;2022-09-20T00:41:23;0.37;;;0.37;;
10098;SDS011;5089;42.656;23.374;2022-09-20T00:47:08;0.30;;;0.30;;
10098;SDS011;5089;42.656;23.374;2022-09-20T00:49:43;0.30;;;0.30;;
10098;SDS011;5089;42.656;23.374;2022-09-20T00:52:11;0.30;;;0.30;;
10098;SDS011;5089;42.656;23.374;2022-09-20T00:54:38;0.30;;;0.30;;
10098;SDS011;5089;42.656;23.374;2022-09-20T00:57:05;0.30;;;0.30;;
10098;SDS011;5089;42.656;23.374;2022-09-20T00:59:35;0.20;;;0.20;;
10098;SDS011;5089;42.656;23.374;2022-09-20T01:02:11;0.27;;;0.27;;
10098;SDS011;5089;42.656;23.374;2022-09-20T01:04:41;0.20;;;0.20;;
10098;SDS011;5089;42.656;23.374;2022-09-20T01:07:28;0.20;;;0.20;;
10098;SDS011;5089;42.656;23.374;2022-09-20T01:10:09;0.30;;;0.30;;
10098;SDS011;5089;42.656;23.374;2022-09-20T01:12:38;0.20;;;0.20;;
10098;SDS011;5089;42.656;23.374;2022-09-20T01:15:06;0.30;;;0.30;;
10098;SDS011;5089;42.656;23.374;2022-09-20T01:17:36;0.20;;;0.20;;
10098;SDS011;5089;42.656;23.374;2022-09-20T01:20:11;0.20;;;0.20;;
10098;SDS011;5089;42.656;23.374;2022-09-20T01:22:47;0.20;;;0.20;;
10098;SDS011;5089;42.656;23.374;2022-09-20T01:25:26;0.20;;;0.20;;
10098;SDS011;5089;42.656;23.374;2022-09-20T01:28:11;0.20;;;0.20;;
10098;SDS011;5089;42.656;23.374;2022-09-20T01:30:41;0.20;;;0.20;;
10098;SDS011;5089;42.656;23.374;2022-09-20T01:33:15;0.30;;;0.30;;
10098;SDS011;5089;42.656;23.374;2022-09-20T01:35:53;0.27;;;0.27;;
10098;SDS011;5089;42.656;23.374;2022-09-20T01:38:26;0.20;;;0.20;;
10098;SDS011;5089;42.656;23.374;2022-09-20T01:41:03;0.20;;;0.20;;
10098;SDS011;5089;42.656;23.374;2022-09-20T01:43:39;0.23;;;0.23;;
10098;SDS011;5089;42.656;23.374;2022-09-20T01:46:20;0.20;;;0.20;;
10098;SDS011;5089;42.656;23.374;2022-09-20T01:49:01;0.13;;;0.13;;
10098;SDS011;5089;42.656;23.374;2022-09-20T01:54:48;0.20;;;0.20;;
10098;SDS011;5089;42.656;23.374;2022-09-20T01:58:06;0.20;;;0.20;;
10098;SDS011;5089;42.656;23.374;2022-09-20T02:00:57;0.20;;;0.20;;
10098;SDS011;5089;42.656;23.374;2022-09-20T02:04:01;0.20;;;0.20;;
10098;SDS011;5089;42.656;23.374;2022-09-20T02:06:44;0.23;;;0.23;;
10098;SDS011;5089;42.656;23.374;2022-09-20T02:09:32;0.30;;;0.30;;
10098;SDS011;5089;42.656;23.374;2022-09-20T02:12:18;0.30;;;0.30;;
10098;SDS011;5089;42.656;23.374;2022-09-20T02:14:57;0.30;;;0.30;;
10098;SDS011;5089;42.656;23.374;2022-09-20T02:17:37;0.30;;;0.30;;
10098;SDS011;5089;42.656;23.374;2022-09-20T02:20:28;0.30;;;0.30;;
10098;SDS011;5089;42.656;23.374;2022-09-20T02:23:25;0.37;;;0.37;;
10098;SDS011;5089;42.656;23.374;2022-09-20T02:29:00;0.30;;;0.30;;
10098;SDS011;5089;42.656;23.374;2022-09-20T02:31:39;0.30;;;0.30;;
10098;SDS011;5089;42.656;23.374;2022-09-20T02:34:31;0.23;;;0.23;;
10098;SDS011;5089;42.656;23.374;2022-09-20T02:37:20;0.33;;;0.33;;
10098;SDS011;5089;42.656;23.374;2022-09-20T02:40:19;0.40;;;0.40;;
10098;SDS011;5089;42.656;23.374;2022-09-20T02:43:01;0.23;;;0.23;;
10098;SDS011;5089;42.656;23.374;2022-09-20T02:45:34;0.30;;;0.30;;
10098;SDS011;5089;42.656;23.374;2022-09-20T02:48:08;0.30;;;0.30;;
10098;SDS011;5089;42.656;23.374;2022-09-20T02:50:39;0.30;;;0.30;;
10098;SDS011;5089;42.656;23.374;2022-09-20T02:53:16;0.40;;;0.40;;
10098;SDS011;5089;42.656;23.374;2022-09-20T02:55:58;0.40;;;0.40;;
10098;SDS011;5089;42.656;23.374;2022-09-20T02:58:34;0.20;;;0.20;;
10098;SDS011;5089;42.656;23.374;2022-09-20T03:01:12;0.30;;;0.30;;
10098;SDS011;5089;42.656;23.374;2022-09-20T03:03:53;0.40;;;0.40;;
10098;SDS011;5089;42.656;23.374;2022-09-20T03:06:29;0.33;;;0.33;;
10098;SDS011;5089;42.656;23.374;2022-09-20T03:09:04;0.30;;;0.30;;
10098;SDS011;5089;42.656;23.374;2022-09-20T03:11:40;0.30;;;0.30;;
10098;SDS011;5089;42.656;23.374;2022-09-20T03:14:16;0.40;;;0.40;;
10098;SDS011;5089;42.656;23.374;2022-09-20T03:16:55;0.20;;;0.20;;
10098;SDS011;5089;42.656;23.374;2022-09-20T03:19:41;0.37;;;0.37;;
10098;SDS011;5089;42.656;23.374;2022-09-20T03:22:20;0.20;;;0.20;;
10098;SDS011;5089;42.656;23.374;2022-09-20T03:25:04;0.30;;;0.30;;
10098;SDS011;5089;42.656;23.374;2022-09-20T03:27:47;0.30;;;0.30;;
10098;SDS011;5089;42.656;23.374;2022-09-20T03:30:24;0.27;;;0.27;;
10098;SDS011;5089;42.656;23.374;2022-09-20T03:33:00;0.20;;;0.20;;
10098;SDS011;5089;42.656;23.374;2022-09-20T03:35:40;0.30;;;0.30;;
10098;SDS011;5089;42.656;23.374;2022-09-20T03:38:21;0.30;;;0.30;;
10098;SDS011;5089;42.656;23.374;2022-09-20T03:41:16;0.20;;;0.20;;
10098;SDS011;5089;42.656;23.374;2022-09-20T03:44:04;0.30;;;0.30;;
10098;SDS011;5089;42.656;23.374;2022-09-20T03:46:45;0.20;;;0.20;;
10098;SDS011;5089;42.656;23.374;2022-09-20T03:49:30;0.20;;;0.20;;
10098;SDS011;5089;42.656;23.374;2022-09-20T03:52:40;0.20;;;0.20;;
10098;SDS011;5089;42.656;23.374;2022-09-20T03:58:23;0.20;;;0.20;;
10098;SDS011;5089;42.656;23.374;2022-09-20T04:01:09;0.30;;;0.30;;
10098;SDS011;5089;42.656;23.374;2022-09-20T04:03:54;0.30;;;0.30;;
10098;SDS011;5089;42.656;23.374;2022-09-20T04:06:35;0.20;;;0.20;;
10098;SDS011;5089;42.656;23.374;2022-09-20T04:09:25;0.30;;;0.30;;
10098;SDS011;5089;42.656;23.374;2022-09-20T04:12:05;0.20;;;0.20;;
10098;SDS011;5089;42.656;23.374;2022-09-20T04:14:40;0.20;;;0.20;;
10098;SDS011;5089;42.656;23.374;2022-09-20T04:17:19;0.30;;;0.30;;
10098;SDS011;5089;42.656;23.374;2022-09-20T04:19:56;0.40;;;0.40;;
10098;SDS011;5089;42.656;23.374;2022-09-20T04:22:27;0.30;;;0.30;;
10098;SDS011;5089;42.656;23.374;2022-09-20T04:24:56;0.40;;;0.40;;
10098;SDS011;5089;42.656;23.374;2022-09-20T04:27:30;0.30;;;0.30;;
10098;SDS011;5089;42.656;23.374;2022-09-20T04:30:04;0.30;;;0.30;;
10098;SDS011;5089;42.656;23.374;2022-09-20T04:32:41;0.17;;;0.17;;
10098;SDS011;5089;42.656;23.374;2022-09-20T04:35:13;0.30;;;0.30;;
10098;SDS011;5089;42.656;23.374;2022-09-20T04:38:16;0.20;;;0.20;;
10098;SDS011;5089;42.656;23.374;2022-09-20T04:47:01;0.30;;;0.30;;
10098;SDS011;5089;42.656;23.374;2022-09-20T04:53:02;0.20;;;0.20;;
10098;SDS011;5089;42.656;23.374;2022-09-20T04:55:59;0.10;;;0.10;;
10098;SDS011;5089;42.656;23.374;2022-09-20T05:04:48;0.20;;;0.20;;
10098;SDS011;5089;42.656;23.374;2022-09-20T05:07:51;0.20;;;0.20;;
10098;SDS011;5089;42.656;23.374;2022-09-20T05:10:54;0.10;;;0.10;;
10098;SDS011;5089;42.656;23.374;2022-09-20T05:13:48;0.10;;;0.10;;
10098;SDS011;5089;42.656;23.374;2022-09-20T05:16:40;0.30;;;0.30;;
10098;SDS011;5089;42.656;23.374;2022-09-20T05:19:24;0.30;;;0.30;;
10098;SDS011;5089;42.656;23.374;2022-09-20T05:28:05;0.30;;;0.30;;
10098;SDS011;5089;42.656;23.374;2022-09-20T05:30:37;0.30;;;0.30;;
10098;SDS011;5089;42.656;23.374;2022-09-20T05:33:10;0.30;;;0.30;;
10098;SDS011;5089;42.656;23.374;2022-09-20T05:35:46;0.20;;;0.20;;
10098;SDS011;5089;42.656;23.374;2022-09-20T05:38:22;0.20;;;0.20;;
10098;SDS011;5089;42.656;23.374;2022-09-20T05:41:03;0.20;;;0.20;;
10098;SDS011;5089;42.656;23.374;2022-09-20T05:43:41;0.20;;;0.20;;
10098;SDS011;5089;42.656;23.374;2022-09-20T05:46:20;0.20;;;0.20;;
10098;SDS011;5089;42.656;23.374;2022-09-20T05:49:00;0.20;;;0.20;;
10098;SDS011;5089;42.656;23.374;2022-09-20T05:51:50;0.20;;;0.20;;
10098;SDS011;5089;42.656;23.374;2022-09-20T05:54:28;0.20;;;0.20;;
10098;SDS011;5089;42.656;23.374;2022-09-20T05:57:14;0.20;;;0.20;;
10098;SDS011;5089;42.656;23.374;2022-09-20T05:59:57;0.30;;;0.30;;
10098;SDS011;5089;42.656;23.374;2022-09-20T06:02:31;0.20;;;0.20;;
10098;SDS011;5089;42.656;23.374;2022-09-20T06:05:08;0.20;;;0.20;;
10098;SDS011;5089;42.656;23.374;2022-09-20T06:07:42;0.20;;;0.20;;
10098;SDS011;5089;42.656;23.374;2022-09-20T06:10:31;0.30;;;0.30;;
10098;SDS011;5089;42.656;23.374;2022-09-20T06:13:17;0.27;;;0.27;;
10098;SDS011;5089;42.656;23.374;2022-09-20T06:16:00;0.20;;;0.20;;
10098;SDS011;5089;42.656;23.374;2022-09-20T06:18:30;0.20;;;0.20;;
10098;SDS011;5089;42.656;23.374;2022-09-20T06:21:06;0.30;;;0.30;;
10098;SDS011;5089;42.656;23.374;2022-09-20T06:23:42;0.20;;;0.20;;
10098;SDS011;5089;42.656;23.374;2022-09-20T06:26:13;0.20;;;0.20;;
10098;SDS011;5089;42.656;23.374;2022-09-20T06:28:44;0.20;;;0.20;;
10098;SDS011;5089;42.656;23.374;2022-09-20T06:31:14;0.30;;;0.30;;
10098;SDS011;5089;42.656;23.374;2022-09-20T06:33:42;0.30;;;0.30;;
10098;SDS011;5089;42.656;23.374;2022-09-20T06:36:15;0.20;;;0.20;;
10098;SDS011;5089;42.656;23.374;2022-09-20T06:39:03;0.20;;;0.20;;
10098;SDS011;5089;42.656;23.374;2022-09-20T06:41:54;0.30;;;0.30;;
10098;SDS011;5089;42.656;23.374;2022-09-20T06:44:22;0.40;;;0.40;;
10098;SDS011;5089;42.656;23.374;2022-09-20T06:46:50;0.30;;;0.30;;
10098;SDS011;5089;42.656;23.374;2022-09-20T06:49:18;0.20;;;0.20;;
10098;SDS011;5089;42.656;23.374;2022-09-20T06:51:45;0.20;;;0.20;;
10098;SDS011;5089;42.656;23.374;2022-09-20T06:54:15;0.20;;;0.20;;
10098;SDS011;5089;42.656;23.374;2022-09-20T06:56:43;0.30;;;0.30;;
10098;SDS011;5089;42.656;23.374;2022-09-20T06:59:11;0.30;;;0.30;;
10098;SDS011;5089;42.656;23.374;2022-09-20T07:01:39;0.30;;;0.30;;
10098;SDS011;5089;42.656;23.374;2022-09-20T07:04:07;0.27;;;0.27;;
10098;SDS011;5089;42.656;23.374;2022-09-20T07:06:34;0.23;;;0.23;;
10098;SDS011;5089;42.656;23.374;2022-09-20T07:09:02;0.20;;;0.20;;
10098;SDS011;5089;42.656;23.374;2022-09-20T07:11:29;0.37;;;0.37;;
10098;SDS011;5089;42.656;23.374;2022-09-20T07:13:59;0.30;;;0.30;;
10098;SDS011;5089;42.656;23.374;2022-09-20T07:16:26;0.20;;;0.20;;
10098;SDS011;5089;42.656;23.374;2022-09-20T07:18:53;0.30;;;0.30;;
10098;SDS011;5089;42.656;23.374;2022-09-20T07:21:22;0.20;;;0.20;;
10098;SDS011;5089;42.656;23.374;2022-09-20T07:23:49;0.30;;;0.30;;
10098;SDS011;5089;42.656;23.374;2022-09-20T07:26:18;0.20;;;0.20;;
10098;SDS011;5089;42.656;23.374;2022-09-20T07:28:47;0.20;;;0.20;;
10098;SDS011;5089;42.656;23.374;2022-09-20T07:31:15;0.20;;;0.20;;
10098;SDS011;5089;42.656;23.374;2022-09-20T07:33:42;0.30;;;0.30;;
10098;SDS011;5089;42.656;23.374;2022-09-20T07:36:09;0.30;;;0.30;;
10098;SDS011;5089;42.656;23.374;2022-09-20T07:38:38;0.30;;;0.30;;
10098;SDS011;5089;42.656;23.374;2022-09-20T07:41:06;0.30;;;0.30;;
10098;SDS011;5089;42.656;23.374;2022-09-20T07:43:33;0.40;;;0.40;;
10098;SDS011;5089;42.656;23.374;2022-09-20T07:46:00;0.30;;;0.30;;
10098;SDS011;5089;42.656;23.374;2022-09-20T07:48:28;0.30;;;0.30;;
10098;SDS011;5089;42.656;23.374;2022-09-20T07:50:56;0.30;;;0.30;;
10098;SDS011;5089;42.656;23.374;2022-09-20T07:53:26;0.30;;;0.30;;
10098;SDS011;5089;42.656;23.374;2022-09-20T07:56:02;0.20;;;0.20;;
10098;SDS011;5089;42.656;23.374;2022-09-20T07:58:31;0.30;;;0.30;;
10098;SDS011;5089;42.656;23.374;2022-09-20T08:00:59;0.30;;;0.30;;
10098;SDS011;5089;42.656;23.374;2022-09-20T08:03:28;0.20;;;0.20;;
10098;SDS011;5089;42.656;23.374;2022-09-20T08:05:57;0.30;;;0.30;;
10098;SDS011;5089;42.656;23.374;2022-09-20T08:08:25;0.30;;;0.30;;
10098;SDS011;5089;42.656;23.374;2022-09-20T08:11:01;0.20;;;0.20;;
10098;SDS011;5089;42.656;23.374;2022-09-20T08:13:30;0.30;;;0.30;;
10098;SDS011;5089;42.656;23.374;2022-09-20T08:16:00;0.30;;;0.30;;
10098;SDS011;5089;42.656;23.374;2022-09-20T08:18:28;0.30;;;0.30;;
10098;SDS011;5089;42.656;23.374;2022-09-20T08:20:55;0.30;;;0.30;;
10098;SDS011;5089;42.656;23.374;2022-09-20T08:23:22;0.20;;;0.20;;
10098;SDS011;5089;42.656;23.374;2022-09-20T08:25:48;0.37;;;0.37;;
10098;SDS011;5089;42.656;23.374;2022-09-20T08:28:16;0.40;;;0.40;;
10098;SDS011;5089;42.656;23.374;2022-09-20T08:30:43;0.40;;;0.40;;
10098;SDS011;5089;42.656;23.374;2022-09-20T08:33:10;0.30;;;0.30;;
10098;SDS011;5089;42.656;23.374;2022-09-20T08:35:37;0.30;;;0.30;;
10098;SDS011;5089;42.656;23.374;2022-09-20T08:38:03;0.20;;;0.20;;
10098;SDS011;5089;42.656;23.374;2022-09-20T08:40:31;0.27;;;0.27;;
10098;SDS011;5089;42.656;23.374;2022-09-20T08:42:59;0.30;;;0.30;;
10098;SDS011;5089;42.656;23.374;2022-09-20T08:45:28;0.30;;;0.30;;
10098;SDS011;5089;42.656;23.374;2022-09-20T08:47:58;0.30;;;0.30;;
10098;SDS011;5089;42.656;23.374;2022-09-20T08:50:29;0.20;;;0.20;;
10098;SDS011;5089;42.656;23.374;2022-09-20T08:52:58;0.30;;;0.30;;
10098;SDS011;5089;42.656;23.374;2022-09-20T08:55:29;0.30;;;0.30;;
10098;SDS011;5089;42.656;23.374;2022-09-20T08:57:57;0.50;;;0.50;;
10098;SDS011;5089;42.656;23.374;2022-09-20T09:00:25;0.40;;;0.40;;
10098;SDS011;5089;42.656;23.374;2022-09-20T09:02:58;0.37;;;0.37;;
10098;SDS011;5089;42.656;23.374;2022-09-20T09:05:30;0.30;;;0.30;;
10098;SDS011;5089;42.656;23.374;2022-09-20T09:08:00;0.40;;;0.40;;
10098;SDS011;5089;42.656;23.374;2022-09-20T09:10:32;0.30;;;0.30;;
10098;SDS011;5089;42.656;23.374;2022-09-20T09:13:02;0.40;;;0.40;;
10098;SDS011;5089;42.656;23.374;2022-09-20T09:15:31;0.30;;;0.30;;
10098;SDS011;5089;42.656;23.374;2022-09-20T09:18:01;0.37;;;0.37;;
10098;SDS011;5089;42.656;23.374;2022-09-20T09:20:28;0.40;;;0.40;;
10098;SDS011;5089;42.656;23.374;2022-09-20T09:23:08;0.30;;;0.30;;
10098;SDS011;5089;42.656;23.374;2022-09-20T09:25:50;0.30;;;0.30;;
10098;SDS011;5089;42.656;23.374;2022-09-20T09:28:19;0.40;;;0.40;;
10098;SDS011;5089;42.656;23.374;2022-09-20T09:30:49;0.40;;;0.40;;
10098;SDS011;5089;42.656;23.374;2022-09-20T09:33:20;0.40;;;0.40;;
10098;SDS011;5089;42.656;23.374;2022-09-20T09:35:54;0.40;;;0.40;;
10098;SDS011;5089;42.656;23.374;2022-09-20T09:38:26;0.40;;;0.40;;
10098;SDS011;5089;42.656;23.374;2022-09-20T09:40:55;0.40;;;0.40;;
10098;SDS011;5089;42.656;23.374;2022-09-20T09:43:26;0.30;;;0.30;;
10098;SDS011;5089;42.656;23.374;2022-09-20T09:45:54;0.40;;;0.40;;
10098;SDS011;5089;42.656;23.374;2022-09-20T09:48:42;0.43;;;0.43;;
10098;SDS011;5089;42.656;23.374;2022-09-20T09:51:14;0.30;;;0.30;;
10098;SDS011;5089;42.656;23.374;2022-09-20T09:53:42;0.33;;;0.33;;
10098;SDS011;5089;42.656;23.374;2022-09-20T09:56:25;0.40;;;0.40;;
10098;SDS011;5089;42.656;23.374;2022-09-20T09:59:11;0.40;;;0.40;;
10098;SDS011;5089;42.656;23.374;2022-09-20T10:01:52;0.30;;;0.30;;
10098;SDS011;5089;42.656;23.374;2022-09-20T10:04:30;0.30;;;0.30;;
10098;SDS011;5089;42.656;23.374;2022-09-20T10:07:06;0.30;;;0.30;;
10098;SDS011;5089;42.656;23.374;2022-09-20T10:12:37;0.20;;;0.20;;
10098;SDS011;5089;42.656;23.374;2022-09-20T10:15:23;0.20;;;0.20;;
10098;SDS011;5089;42.656;23.374;2022-09-20T10:17:59;0.30;;;0.30;;
10098;SDS011;5089;42.656;23.374;2022-09-20T10:20:44;0.30;;;0.30;;
10098;SDS011;5089;42.656;23.374;2022-09-20T10:23:27;0.30;;;0.30;;
10098;SDS011;5089;42.656;23.374;2022-09-20T10:26:24;0.30;;;0.30;;
10098;SDS011;5089;42.656;23.374;2022-09-20T10:29:06;0.30;;;0.30;;
10098;SDS011;5089;42.656;23.374;2022-09-20T10:31:44;0.30;;;0.30;;
10098;SDS011;5089;42.656;23.374;2022-09-20T10:37:22;0.40;;;0.40;;
10098;SDS011;5089;42.656;23.374;2022-09-20T10:39:58;0.40;;;0.40;;
10098;SDS011;5089;42.656;23.374;2022-09-20T10:42:33;0.30;;;0.30;;
10098;SDS011;5089;42.656;23.374;2022-09-20T10:45:23;0.40;;;0.40;;
10098;SDS011;5089;42.656;23.374;2022-09-20T10:47:58;0.30;;;0.30;;
10098;SDS011;5089;42.656;23.374;2022-09-20T10:50:32;0.33;;;0.33;;
10098;SDS011;5089;42.656;23.374;2022-09-20T10:53:16;0.30;;;0.30;;
10098;SDS011;5089;42.656;23.374;2022-09-20T10:56:00;0.40;;;0.40;;
10098;SDS011;5089;42.656;23.374;2022-09-20T10:58:56;0.40;;;0.40;;
10098;SDS011;5089;42.656;23.374;2022-09-20T11:01:46;0.60;;;0.60;;
10098;SDS011;5089;42.656;23.374;2022-09-20T11:07:27;0.50;;;0.50;;
10098;SDS011;5089;42.656;23.374;2022-09-20T11:10:13;0.50;;;0.50;;
10098;SDS011;5089;42.656;23.374;2022-09-20T11:12:47;0.47;;;0.47;;
10098;SDS011;5089;42.656;23.374;2022-09-20T11:15:20;0.40;;;0.40;;
10098;SDS011;5089;42.656;23.374;2022-09-20T11:17:52;0.50;;;0.50;;
10098;SDS011;5089;42.656;23.374;2022-09-20T11:20:26;0.50;;;0.50;;
10098;SDS011;5089;42.656;23.374;2022-09-20T11:22:57;0.50;;;0.50;;
10098;SDS011;5089;42.656;23.374;2022-09-20T11:25:32;0.40;;;0.40;;
10098;SDS011;5089;42.656;23.374;2022-09-20T11:28:06;0.50;;;0.50;;
10098;SDS011;5089;42.656;23.374;2022-09-20T11:30:39;0.67;;;0.67;;
10098;SDS011;5089;42.656;23.374;2022-09-20T11:33:12;0.80;;;0.80;;
10098;SDS011;5089;42.656;23.374;2022-09-20T11:35:45;0.50;;;0.50;;
10098;SDS011;5089;42.656;23.374;2022-09-20T11:38:16;0.50;;;0.50;;
10098;SDS011;5089;42.656;23.374;2022-09-20T11:40:53;0.40;;;0.40;;
10098;SDS011;5089;42.656;23.374;2022-09-20T11:43:27;0.40;;;0.40;;
10098;SDS011;5089;42.656;23.374;2022-09-20T11:45:57;0.50;;;0.50;;
10098;SDS011;5089;42.656;23.374;2022-09-20T11:48:30;0.40;;;0.40;;
10098;SDS011;5089;42.656;23.374;2022-09-20T11:51:10;0.50;;;0.50;;
10098;SDS011;5089;42.656;23.374;2022-09-20T11:54:00;0.60;;;0.60;;
10098;SDS011;5089;42.656;23.374;2022-09-20T11:56:51;0.40;;;0.40;;
10098;SDS011;5089;42.656;23.374;2022-09-20T12:02:15;0.60;;;0.60;;
10098;SDS011;5089;42.656;23.374;2022-09-20T12:07:23;0.53;;;0.53;;
10098;SDS011;5089;42.656;23.374;2022-09-20T12:09:54;0.50;;;0.50;;
10098;SDS011;5089;42.656;23.374;2022-09-20T12:12:36;0.40;;;0.40;;
10098;SDS011;5089;42.656;23.374;2022-09-20T12:15:06;0.70;;;0.70;;
10098;SDS011;5089;42.656;23.374;2022-09-20T12:21:02;0.40;;;0.40;;
10098;SDS011;5089;42.656;23.374;2022-09-20T12:23:58;0.60;;;0.60;;
10098;SDS011;5089;42.656;23.374;2022-09-20T12:26:43;0.53;;;0.53;;
10098;SDS011;5089;42.656;23.374;2022-09-20T12:38:45;0.50;;;0.50;;
10098;SDS011;5089;42.656;23.374;2022-09-20T12:41:20;0.60;;;0.60;;
10098;SDS011;5089;42.656;23.374;2022-09-20T12:43:57;0.40;;;0.40;;
10098;SDS011;5089;42.656;23.374;2022-09-20T12:49:28;0.40;;;0.40;;
10098;SDS011;5089;42.656;23.374;2022-09-20T12:52:32;0.40;;;0.40;;
10098;SDS011;5089;42.656;23.374;2022-09-20T12:58:27;0.50;;;0.50;;
10098;SDS011;5089;42.656;23.374;2022-09-20T13:03:57;0.60;;;0.60;;
10098;SDS011;5089;42.656;23.374;2022-09-20T13:10:05;0.47;;;0.47;;
10098;SDS011;5089;42.656;23.374;2022-09-20T13:12:44;0.40;;;0.40;;
10098;SDS011;5089;42.656;23.374;2022-09-20T13:15:12;0.50;;;0.50;;
10098;SDS011;5089;42.656;23.374;2022-09-20T13:17:44;0.50;;;0.50;;
10098;SDS011;5089;42.656;23.374;2022-09-20T13:20:15;0.60;;;0.60;;
10098;SDS011;5089;42.656;23.374;2022-09-20T13:22:45;0.50;;;0.50;;
10098;SDS011;5089;42.656;23.374;2022-09-20T13:25:21;0.60;;;0.60;;
10098;SDS011;5089;42.656;23.374;2022-09-20T13:27:50;0.80;;;0.80;;
10098;SDS011;5089;42.656;23.374;2022-09-20T13:30:23;0.70;;;0.70;;
10098;SDS011;5089;42.656;23.374;2022-09-20T13:32:52;0.50;;;0.50;;
10098;SDS011;5089;42.656;23.374;2022-09-20T13:35:19;0.50;;;0.50;;
10098;SDS011;5089;42.656;23.374;2022-09-20T13:37:51;0.53;;;0.53;;
10098;SDS011;5089;42.656;23.374;2022-09-20T13:40:22;0.50;;;0.50;;
10098;SDS011;5089;42.656;23.374;2022-09-20T13:42:54;0.40;;;0.40;;
10098;SDS011;5089;42.656;23.374;2022-09-20T13:45:24;0.40;;;0.40;;
10098;SDS011;5089;42.656;23.374;2022-09-20T13:47:51;0.40;;;0.40;;
10098;SDS011;5089;42.656;23.374;2022-09-20T13:50:21;0.43;;;0.43;;
10098;SDS011;5089;42.656;23.374;2022-09-20T13:52:53;0.43;;;0.43;;
10098;SDS011;5089;42.656;23.374;2022-09-20T13:55:29;0.70;;;0.70;;
10098;SDS011;5089;42.656;23.374;2022-09-20T13:57:58;0.90;;;0.90;;
10098;SDS011;5089;42.656;23.374;2022-09-20T14:00:28;0.80;;;0.80;;
10098;SDS011;5089;42.656;23.374;2022-09-20T14:02:57;1.00;;;1.00;;
10098;SDS011;5089;42.656;23.374;2022-09-20T14:05:25;0.80;;;0.80;;
10098;SDS011;5089;42.656;23.374;2022-09-20T14:07:54;0.80;;;0.80;;
10098;SDS011;5089;42.656;23.374;2022-09-20T14:10:26;0.87;;;0.87;;
10098;SDS011;5089;42.656;23.374;2022-09-20T14:12:59;0.80;;;0.80;;
10098;SDS011;5089;42.656;23.374;2022-09-20T14:15:29;0.80;;;0.80;;
10098;SDS011;5089;42.656;23.374;2022-09-20T14:17:59;0.80;;;0.80;;
10098;SDS011;5089;42.656;23.374;2022-09-20T14:20:28;0.60;;;0.60;;
10098;SDS011;5089;42.656;23.374;2022-09-20T14:22:55;0.80;;;0.80;;
10098;SDS011;5089;42.656;23.374;2022-09-20T14:25:23;0.67;;;0.67;;
10098;SDS011;5089;42.656;23.374;2022-09-20T14:28:05;0.90;;;0.90;;
10098;SDS011;5089;42.656;23.374;2022-09-20T14:30:41;0.60;;;0.60;;
10098;SDS011;5089;42.656;23.374;2022-09-20T14:33:13;0.60;;;0.60;;
10098;SDS011;5089;42.656;23.374;2022-09-20T14:35:45;0.70;;;0.70;;
10098;SDS011;5089;42.656;23.374;2022-09-20T14:38:14;0.73;;;0.73;;
10098;SDS011;5089;42.656;23.374;2022-09-20T14:40:44;0.60;;;0.60;;
10098;SDS011;5089;42.656;23.374;2022-09-20T14:43:19;0.70;;;0.70;;
10098;SDS011;5089;42.656;23.374;2022-09-20T14:45:51;0.60;;;0.60;;
10098;SDS011;5089;42.656;23.374;2022-09-20T14:48:31;0.50;;;0.50;;
10098;SDS011;5089;42.656;23.374;2022-09-20T14:51:10;0.60;;;0.60;;
10098;SDS011;5089;42.656;23.374;2022-09-20T14:53:47;0.60;;;0.60;;
10098;SDS011;5089;42.656;23.374;2022-09-20T14:56:16;0.70;;;0.70;;
10098;SDS011;5089;42.656;23.374;2022-09-20T14:59:04;0.80;;;0.80;;
10098;SDS011;5089;42.656;23.374;2022-09-20T15:01:45;0.73;;;0.73;;
10098;SDS011;5089;42.656;23.374;2022-09-20T15:04:22;0.60;;;0.60;;
10098;SDS011;5089;42.656;23.374;2022-09-20T15:06:51;0.70;;;0.70;;
10098;SDS011;5089;42.656;23.374;2022-09-20T15:09:19;0.63;;;0.63;;
10098;SDS011;5089;42.656;23.374;2022-09-20T15:11:47;0.70;;;0.70;;
10098;SDS011;5089;42.656;23.374;2022-09-20T15:14:25;0.90;;;0.90;;
10098;SDS011;5089;42.656;23.374;2022-09-20T15:16:53;0.60;;;0.60;;
10098;SDS011;5089;42.656;23.374;2022-09-20T15:19:20;0.60;;;0.60;;
10098;SDS011;5089;42.656;23.374;2022-09-20T15:21:47;0.60;;;0.60;;
10098;SDS011;5089;42.656;23.374;2022-09-20T15:24:14;0.60;;;0.60;;
10098;SDS011;5089;42.656;23.374;2022-09-20T15:26:42;0.83;;;0.83;;
10098;SDS011;5089;42.656;23.374;2022-09-20T15:29:11;0.73;;;0.73;;
10098;SDS011;5089;42.656;23.374;2022-09-20T15:31:44;0.80;;;0.80;;
10098;SDS011;5089;42.656;23.374;2022-09-20T15:34:12;0.80;;;0.80;;
10098;SDS011;5089;42.656;23.374;2022-09-20T15:36:40;0.73;;;0.73;;
10098;SDS011;5089;42.656;23.374;2022-09-20T15:39:07;0.73;;;0.73;;
10098;SDS011;5089;42.656;23.374;2022-09-20T15:41:34;0.70;;;0.70;;
10098;SDS011;5089;42.656;23.374;2022-09-20T15:44:02;0.60;;;0.60;;
10098;SDS011;5089;42.656;23.374;2022-09-20T15:46:29;0.70;;;0.70;;
10098;SDS011;5089;42.656;23.374;2022-09-20T15:48:57;0.77;;;0.77;;
10098;SDS011;5089;42.656;23.374;2022-09-20T15:51:26;0.60;;;0.60;;
10098;SDS011;5089;42.656;23.374;2022-09-20T15:53:55;0.70;;;0.70;;
10098;SDS011;5089;42.656;23.374;2022-09-20T15:56:23;0.70;;;0.70;;
10098;SDS011;5089;42.656;23.374;2022-09-20T15:58:53;0.80;;;0.80;;
10098;SDS011;5089;42.656;23.374;2022-09-20T16:01:23;0.53;;;0.53;;
10098;SDS011;5089;42.656;23.374;2022-09-20T16:03:51;0.63;;;0.63;;
10098;SDS011;5089;42.656;23.374;2022-09-20T16:06:20;0.70;;;0.70;;
10098;SDS011;5089;42.656;23.374;2022-09-20T16:08:47;0.70;;;0.70;;
10098;SDS011;5089;42.656;23.374;2022-09-20T16:11:17;0.60;;;0.60;;
10098;SDS011;5089;42.656;23.374;2022-09-20T16:13:45;0.63;;;0.63;;
10098;SDS011;5089;42.656;23.374;2022-09-20T16:16:12;0.70;;;0.70;;
10098;SDS011;5089;42.656;23.374;2022-09-20T16:18:40;0.70;;;0.70;;
10098;SDS011;5089;42.656;23.374;2022-09-20T16:21:25;0.73;;;0.73;;
10098;SDS011;5089;42.656;23.374;2022-09-20T16:23:53;0.70;;;0.70;;
10098;SDS011;5089;42.656;23.374;2022-09-20T16:26:22;0.60;;;0.60;;
10098;SDS011;5089;42.656;23.374;2022-09-20T16:28:50;0.60;;;0.60;;
10098;SDS011;5089;42.656;23.374;2022-09-20T16:31:27;0.53;;;0.53;;
10098;SDS011;5089;42.656;23.374;2022-09-20T16:33:55;0.60;;;0.60;;
10098;SDS011;5089;42.656;23.374;2022-09-20T16:36:22;0.80;;;0.80;;
10098;SDS011;5089;42.656;23.374;2022-09-20T16:38:50;0.50;;;0.50;;
10098;SDS011;5089;42.656;23.374;2022-09-20T16:41:19;0.70;;;0.70;;
10098;SDS011;5089;42.656;23.374;2022-09-20T16:43:47;0.60;;;0.60;;
10098;SDS011;5089;42.656;23.374;2022-09-20T16:46:16;0.60;;;0.60;;
10098;SDS011;5089;42.656;23.374;2022-09-20T16:48:44;0.70;;;0.70;;